Time;durP1;ratioP1;P1;durP2;ratioP2;P2;SDS_P1;SDS_P2;PMS_P1;PMS_P2;Temp;Humidity;BMP_temperature;BMP_pressure;BME280_temperature;BME280_humidity;BME280_pressure;Samples;Min_cycle;Max_cycle;Signal;HPM_P1;HPM_P2
2023/09/04 00:00:29;;;;;;;9.50;3.10;;;;;;;18.02;82.51;101215.09;107307;1257;97741;-61
2023/09/04 00:03:17;;;;;;;6.30;3.40;;;;;;;18.06;82.67;101212.54;107355;1257;113299;-62
2023/09/04 00:05:45;;;;;;;4.70;3.60;;;;;;;18.03;82.42;101210.80;107365;1254;109630;-62
2023/09/04 00:08:14;;;;;;;6.60;3.60;;;;;;;18.06;82.55;101209.77;107313;1257;108232;-62
2023/09/04 00:10:43;;;;;;;8.60;3.80;;;;;;;17.96;83.26;101213.09;107341;1259;97931;-60
2023/09/04 00:13:12;;;;;;;7.60;3.80;;;;;;;17.88;83.29;101207.99;107371;1257;97925;-63
2023/09/04 00:15:40;;;;;;;9.70;4.30;;;;;;;17.83;83.14;101204.48;107374;1254;111788;-61
2023/09/04 00:18:09;;;;;;;5.30;3.30;;;;;;;17.86;83.01;101200.20;107344;1257;110061;-61
2023/09/04 00:20:37;;;;;;;5.70;3.40;;;;;;;17.92;83.14;101201.38;107287;1259;108268;-63
2023/09/04 00:23:06;;;;;;;6.40;4.00;;;;;;;17.95;82.94;101204.42;107373;1257;97826;-61
2023/09/04 00:25:34;;;;;;;6.80;3.80;;;;;;;18.01;83.04;101201.63;107371;1254;98373;-61
2023/09/04 00:28:03;;;;;;;8.40;3.80;;;;;;;18.01;83.26;101200.67;107375;1254;111758;-61
2023/09/04 00:30:31;;;;;;;5.30;3.70;;;;;;;17.94;83.26;101198.59;107363;1258;109667;-62
2023/09/04 00:33:00;;;;;;;5.50;4.00;;;;;;;17.91;83.58;101201.13;107329;1257;108400;-62
2023/09/04 00:35:28;;;;;;;12.90;3.80;;;;;;;17.84;83.61;101200.94;107340;1254;97853;-62
2023/09/04 00:37:56;;;;;;;5.40;3.60;;;;;;;17.81;83.81;101201.02;107366;1258;98448;-62
2023/09/04 00:40:25;;;;;;;6.40;3.90;;;;;;;17.78;84.43;101199.57;107342;1257;112210;-62
2023/09/04 00:42:53;;;;;;;9.70;3.70;;;;;;;17.77;84.45;101197.39;107346;1258;109232;-62
2023/09/04 00:45:22;;;;;;;5.50;3.90;;;;;;;17.79;84.25;101196.07;107231;1254;107906;-60
2023/09/04 00:47:50;;;;;;;9.60;4.50;;;;;;;17.79;85.06;101195.63;107311;1254;98092;-60
2023/09/04 00:50:23;;;;;;;9.30;4.30;;;;;;;17.73;85.42;101195.98;107341;1254;97838;-62
2023/09/04 00:52:56;;;;;;;8.50;4.30;;;;;;;17.67;85.90;101195.45;107312;1254;111477;-60
2023/09/04 00:55:25;;;;;;;5.30;4.20;;;;;;;17.56;87.26;101195.54;107399;1254;109044;-63
2023/09/04 00:57:54;;;;;;;10.50;5.50;;;;;;;17.52;86.68;101192.03;107393;1257;106877;-62
2023/09/04 01:00:25;;;;;;;9.50;4.30;;;;;;;17.48;87.59;101194.58;107380;1254;97825;-61
2023/09/04 01:02:55;;;;;;;8.10;4.20;;;;;;;17.45;87.64;101186.45;107218;1258;98369;-62
2023/09/04 01:05:27;;;;;;;7.60;4.00;;;;;;;17.45;88.03;101190.27;107380;1254;110040;-61
2023/09/04 01:07:56;;;;;;;12.00;4.80;;;;;;;17.40;88.29;101186.64;107271;1259;109621;-60
2023/09/04 01:10:27;;;;;;;10.20;4.60;;;;;;;17.40;88.66;101192.28;107341;1256;108004;-60
2023/09/04 01:13:05;;;;;;;8.20;4.80;;;;;;;17.36;89.17;101192.35;107332;1257;97912;-61
2023/09/04 01:15:35;;;;;;;7.70;4.80;;;;;;;17.32;89.48;101192.09;107319;1254;98476;-60
2023/09/04 01:18:04;;;;;;;8.30;4.70;;;;;;;17.28;90.24;101188.68;107325;1257;112259;-60
2023/09/04 01:20:33;;;;;;;8.80;4.80;;;;;;;17.22;90.94;101185.39;107328;1258;108766;-60
2023/09/04 01:23:02;;;;;;;6.20;4.50;;;;;;;17.22;90.40;101185.73;107297;1254;108344;-60
2023/09/04 01:25:43;;;;;;;8.40;4.90;;;;;;;17.27;90.24;101179.08;107361;1254;97838;-60
2023/09/04 01:28:24;;;;;;;11.70;5.30;;;;;;;17.36;90.00;101180.68;107291;1257;98427;-61
2023/09/04 01:31:04;;;;;;;7.30;5.10;;;;;;;17.44;89.28;101182.56;107214;1258;112689;-60
2023/09/04 01:33:39;;;;;;;9.80;4.80;;;;;;;17.48;89.09;101182.96;107349;1257;110140;-61
2023/09/04 01:36:13;;;;;;;12.30;5.20;;;;;;;17.54;88.83;101183.64;107230;1260;108169;-60
2023/09/04 01:38:45;;;;;;;8.80;5.00;;;;;;;17.62;88.52;101186.20;107390;1255;97924;-62
2023/09/04 01:41:14;;;;;;;8.30;5.10;;;;;;;17.70;88.24;101189.42;107351;1257;98478;-59
2023/09/04 01:43:43;;;;;;;8.70;4.80;;;;;;;17.77;87.90;101189.16;107317;1254;112388;-60
2023/09/04 01:46:12;;;;;;;9.10;5.30;;;;;;;17.82;87.30;101189.73;107349;1254;109509;-60
2023/09/04 01:48:40;;;;;;;8.00;5.20;;;;;;;17.87;87.06;101186.46;107192;1260;108212;-60
2023/09/04 01:51:09;;;;;;;12.00;4.90;;;;;;;17.89;86.71;101184.06;107383;1254;98347;-61
2023/09/04 01:53:37;;;;;;;8.70;5.20;;;;;;;17.93;86.71;101184.39;107393;1258;98369;-61
2023/09/04 01:56:05;;;;;;;10.80;5.30;;;;;;;17.96;86.72;101184.34;107418;1254;112073;-63
2023/09/04 01:58:34;;;;;;;8.60;5.30;;;;;;;17.93;86.16;101183.06;107295;1254;109224;-60
2023/09/04 02:01:02;;;;;;;8.20;5.50;;;;;;;17.91;86.09;101184.16;107200;1256;108111;-61
2023/09/04 02:03:30;;;;;;;12.00;5.30;;;;;;;17.94;86.02;101188.41;107399;1258;97905;-60
2023/09/04 02:05:59;;;;;;;9.70;5.90;;;;;;;17.99;86.33;101188.27;107435;1254;97934;-61
2023/09/04 02:08:27;;;;;;;7.40;5.00;;;;;;;18.01;85.99;101195.98;107385;1257;112154;-60
2023/09/04 02:10:58;;;;;;;8.00;5.60;;;;;;;18.01;85.43;101201.99;107357;1257;109739;-61
2023/09/04 02:13:26;;;;;;;15.00;6.10;;;;;;;18.02;85.37;101207.08;107336;1257;107694;-60
2023/09/04 02:15:55;;;;;;;13.80;5.50;;;;;;;18.05;85.55;101206.48;107254;1256;97982;-61
2023/09/04 02:18:23;;;;;;;9.60;5.80;;;;;;;18.06;85.65;101204.47;107232;1257;97846;-61
2023/09/04 02:20:52;;;;;;;14.30;5.10;;;;;;;18.08;85.30;101204.11;107267;1254;111879;-60
2023/09/04 02:23:20;;;;;;;8.30;5.40;;;;;;;18.09;85.17;101203.58;107258;1257;108914;-62
2023/09/04 02:25:48;;;;;;;10.40;5.40;;;;;;;18.10;85.10;101204.52;107231;1254;108173;-60
2023/09/04 02:28:17;;;;;;;10.30;5.60;;;;;;;18.12;84.98;101204.85;107352;1254;97825;-61
2023/09/04 02:30:45;;;;;;;10.80;4.60;;;;;;;18.14;85.01;101203.60;107378;1254;97748;-60
2023/09/04 02:33:13;;;;;;;10.70;5.60;;;;;;;18.17;84.89;101206.20;107356;1258;111962;-60
2023/09/04 02:35:42;;;;;;;7.40;4.80;;;;;;;18.17;84.81;101205.41;107373;1254;110436;-63
2023/09/04 02:38:10;;;;;;;9.90;5.70;;;;;;;18.16;84.70;101206.05;107337;1259;106794;-61
2023/09/04 02:40:39;;;;;;;13.80;5.50;;;;;;;18.17;84.86;101204.35;107330;1254;97871;-60
2023/09/04 02:43:07;;;;;;;5.70;4.70;;;;;;;18.17;84.50;101205.06;107320;1256;98402;-60
2023/09/04 02:45:36;;;;;;;9.70;5.50;;;;;;;18.19;84.52;101204.86;107339;1254;112151;-60
2023/09/04 02:48:04;;;;;;;8.20;4.50;;;;;;;18.20;84.18;101204.25;107382;1257;108389;-62
2023/09/04 02:50:34;;;;;;;7.00;4.80;;;;;;;18.20;84.21;101204.38;107398;1255;108542;-60
2023/09/04 02:53:03;;;;;;;8.00;5.10;;;;;;;18.18;84.19;101206.63;107263;1257;97954;-62
2023/09/04 02:55:31;;;;;;;8.10;5.20;;;;;;;18.17;84.21;101207.08;107400;1254;97861;-62
2023/09/04 02:58:00;;;;;;;8.00;5.20;;;;;;;18.14;83.85;101203.78;107368;1257;111275;-62
2023/09/04 03:00:29;;;;;;;7.70;5.20;;;;;;;18.14;83.71;101202.33;107383;1254;109804;-60
2023/09/04 03:02:57;;;;;;;16.90;5.70;;;;;;;18.13;83.49;101199.91;107331;1257;107372;-61
2023/09/04 03:05:27;;;;;;;7.70;4.80;;;;;;;18.14;83.68;101206.29;107241;1254;97915;-61
2023/09/04 03:07:55;;;;;;;9.90;4.90;;;;;;;18.15;83.50;101207.49;107276;1255;97960;-60
2023/09/04 03:10:23;;;;;;;10.90;5.20;;;;;;;18.16;83.28;101207.77;107320;1254;111835;-61
2023/09/04 03:12:52;;;;;;;7.40;4.70;;;;;;;18.13;83.18;101212.16;107328;1257;109322;-62
2023/09/04 03:15:20;;;;;;;11.50;5.00;;;;;;;18.12;82.97;101215.91;107362;1257;107885;-61
2023/09/04 03:17:48;;;;;;;8.10;4.90;;;;;;;18.12;83.01;101214.71;107310;1257;97847;-60
2023/09/04 03:20:19;;;;;;;16.70;5.40;;;;;;;18.12;82.92;101216.29;107369;1256;97819;-61
2023/09/04 03:22:50;;;;;;;9.70;5.30;;;;;;;18.13;82.83;101214.04;107356;1254;110755;-61
2023/09/04 03:25:18;;;;;;;14.40;4.80;;;;;;;18.14;82.88;101219.48;107328;1254;110126;-61
2023/09/04 03:27:47;;;;;;;9.80;5.60;;;;;;;18.17;82.82;101225.77;107347;1254;108340;-61
2023/09/04 03:30:15;;;;;;;8.20;5.30;;;;;;;18.17;82.66;101226.27;107323;1257;98378;-61
2023/09/04 03:32:44;;;;;;;11.90;5.00;;;;;;;18.20;82.72;101227.13;107415;1254;97840;-61
2023/09/04 03:35:16;;;;;;;9.10;5.40;;;;;;;18.22;82.68;101230.52;107394;1258;111779;-63
2023/09/04 03:37:45;;;;;;;9.60;5.10;;;;;;;18.24;82.57;101230.79;107339;1254;108667;-61
2023/09/04 03:40:18;;;;;;;8.60;4.80;;;;;;;18.26;82.71;101230.52;107412;1260;107505;-61
2023/09/04 03:42:47;;;;;;;8.30;5.90;;;;;;;18.25;83.00;101233.02;107223;1260;97902;-63
2023/09/04 03:45:15;;;;;;;18.20;5.30;;;;;;;18.21;82.99;101231.64;107379;1254;97847;-61
2023/09/04 03:47:45;;;;;;;7.90;5.50;;;;;;;18.20;83.26;101233.96;107379;1260;111652;-60
2023/09/04 03:50:14;;;;;;;17.50;5.50;;;;;;;18.21;82.99;101237.27;107354;1260;109070;-61
2023/09/04 03:52:43;;;;;;;9.00;4.70;;;;;;;18.23;82.80;101240.73;107312;1260;107731;-61
2023/09/04 03:55:12;;;;;;;8.40;4.90;;;;;;;18.23;82.62;101240.17;107291;1256;97853;-62
2023/09/04 03:57:46;;;;;;;11.90;5.50;;;;;;;18.24;83.11;101242.55;107360;1260;98357;-60
2023/09/04 04:00:16;;;;;;;15.00;5.70;;;;;;;18.23;83.23;101247.43;107265;1257;112202;-60
2023/09/04 04:02:48;;;;;;;8.40;5.50;;;;;;;18.23;83.56;101246.59;107220;1257;109129;-61
2023/09/04 04:05:18;;;;;;;8.30;5.00;;;;;;;18.21;83.19;101249.69;107232;1260;108086;-62
2023/09/04 04:07:46;;;;;;;12.00;5.80;;;;;;;18.22;83.17;101249.16;107361;1257;97692;-60
2023/09/04 04:10:15;;;;;;;7.40;4.70;;;;;;;18.26;83.18;101245.64;107248;1258;97832;-60
2023/09/04 04:12:43;;;;;;;9.40;5.80;;;;;;;18.28;83.08;101247.58;107269;1259;110917;-60
2023/09/04 04:15:12;;;;;;;14.20;5.70;;;;;;;18.32;83.03;101246.38;107225;1260;108804;-60
2023/09/04 04:17:40;;;;;;;8.20;5.60;;;;;;;18.37;82.80;101248.91;107223;1257;107758;-59
2023/09/04 04:20:11;;;;;;;11.10;6.00;;;;;;;18.41;82.65;101244.13;107257;1258;97886;-60
2023/09/04 04:22:41;;;;;;;10.70;7.00;;;;;;;18.43;82.48;101242.55;107324;1257;97828;-60
2023/09/04 04:25:10;;;;;;;13.30;6.90;;;;;;;18.47;82.29;101245.73;107255;1260;111322;-60
2023/09/04 04:27:38;;;;;;;13.20;6.60;;;;;;;18.50;82.20;101245.29;107235;1257;109905;-60
2023/09/04 04:30:08;;;;;;;11.60;5.90;;;;;;;18.53;82.05;101246.94;107225;1257;106726;-59
2023/09/04 04:32:37;;;;;;;15.50;6.80;;;;;;;18.55;81.95;101250.16;107207;1258;97860;-61
2023/09/04 04:35:07;;;;;;;17.50;8.90;;;;;;;18.58;82.25;101251.63;107159;1257;97845;-61
2023/09/04 04:37:37;;;;;;;14.00;5.80;;;;;;;18.59;82.11;101253.08;107340;1257;112502;-63
2023/09/04 04:40:07;;;;;;;15.50;6.90;;;;;;;18.62;81.97;101257.27;107245;1258;108837;-61
2023/09/04 04:42:37;;;;;;;15.90;6.60;;;;;;;18.66;81.84;101254.34;107240;1256;108098;-61
2023/09/04 04:45:08;;;;;;;15.90;6.40;;;;;;;18.65;81.66;101256.82;107222;1257;97847;-60
2023/09/04 04:47:37;;;;;;;9.40;5.60;;;;;;;18.68;81.70;101256.65;107310;1257;98369;-60
2023/09/04 04:50:08;;;;;;;7.90;5.70;;;;;;;18.71;81.60;101259.31;107291;1257;111661;-61
2023/09/04 04:52:37;;;;;;;29.40;7.20;;;;;;;18.76;81.50;101262.39;107216;1257;109496;-60
2023/09/04 04:55:07;;;;;;;9.00;6.60;;;;;;;18.78;81.43;101262.89;107328;1260;107930;-61
2023/09/04 04:57:35;;;;;;;8.70;6.30;;;;;;;18.82;81.46;101265.95;107299;1257;97917;-61
2023/09/04 05:00:06;;;;;;;15.30;6.60;;;;;;;18.85;81.41;101263.03;107280;1258;97838;-60
2023/09/04 05:02:36;;;;;;;7.50;5.80;;;;;;;18.88;81.26;101266.14;107323;1254;111072;-60
2023/09/04 05:05:07;;;;;;;8.50;6.20;;;;;;;18.91;81.19;101265.99;107435;1257;108889;-59
2023/09/04 05:07:37;;;;;;;12.80;6.40;;;;;;;18.95;81.15;101267.40;107331;1260;108376;-60
2023/09/04 05:10:06;;;;;;;12.20;6.70;;;;;;;19.01;81.06;101268.61;107244;1257;97835;-60
2023/09/04 05:12:35;;;;;;;11.90;7.10;;;;;;;19.06;80.78;101276.80;107176;1256;97996;-59
2023/09/04 05:15:05;;;;;;;15.30;7.50;;;;;;;19.11;80.74;101275.34;107220;1258;111860;-60
2023/09/04 05:17:34;;;;;;;9.50;6.90;;;;;;;19.12;80.24;101276.70;107420;1254;108800;-60
2023/09/04 05:20:05;;;;;;;12.90;6.70;;;;;;;19.12;80.21;101279.02;107415;1256;107744;-60
2023/09/04 05:22:33;;;;;;;11.10;7.20;;;;;;;19.12;79.93;101283.38;107295;1254;97969;-59
2023/09/04 05:25:01;;;;;;;18.20;7.60;;;;;;;19.15;80.01;101286.08;107232;1255;98334;-60
2023/09/04 05:27:29;;;;;;;13.10;7.00;;;;;;;19.18;80.06;101289.19;107327;1254;111964;-60
2023/09/04 05:29:57;;;;;;;20.20;7.40;;;;;;;19.21;79.82;101293.55;107335;1256;110376;-61
2023/09/04 05:32:26;;;;;;;12.00;7.00;;;;;;;19.25;79.65;101295.29;107337;1257;108579;-60
2023/09/04 05:34:54;;;;;;;11.10;6.80;;;;;;;19.25;79.41;101300.23;107224;1256;97852;-60
2023/09/04 05:37:22;;;;;;;10.80;6.10;;;;;;;19.28;79.40;101297.77;107339;1258;98356;-60
2023/09/04 05:39:51;;;;;;;10.10;6.60;;;;;;;19.30;79.27;101294.20;107359;1257;111217;-60
2023/09/04 05:42:19;;;;;;;8.90;6.40;;;;;;;19.35;79.32;101292.66;107343;1257;108536;-61
2023/09/04 05:44:47;;;;;;;11.90;6.90;;;;;;;19.42;78.99;101292.06;107326;1257;107460;-60
2023/09/04 05:47:16;;;;;;;22.20;6.70;;;;;;;19.50;79.01;101292.55;107395;1254;97944;-60
2023/09/04 05:49:44;;;;;;;9.30;6.30;;;;;;;19.59;78.70;101286.74;107358;1257;98469;-61
2023/09/04 05:52:13;;;;;;;15.10;7.60;;;;;;;19.60;78.26;101289.02;107422;1256;111473;-60
2023/09/04 05:54:41;;;;;;;13.80;7.00;;;;;;;19.60;78.11;101289.02;107351;1254;109781;-60
2023/09/04 05:57:10;;;;;;;11.60;6.60;;;;;;;19.60;77.91;101289.77;107397;1257;108124;-61
2023/09/04 05:59:38;;;;;;;10.80;6.40;;;;;;;19.59;77.76;101295.55;107351;1257;98236;-60
2023/09/04 06:02:06;;;;;;;13.60;7.70;;;;;;;19.56;77.58;101292.23;107368;1255;97748;-60
2023/09/04 06:04:34;;;;;;;15.80;7.70;;;;;;;19.57;77.74;101292.88;107335;1257;111519;-61
2023/09/04 06:07:04;;;;;;;10.00;6.90;;;;;;;19.59;77.58;101296.92;107359;1260;108956;-60
2023/09/04 06:09:33;;;;;;;11.40;6.60;;;;;;;19.61;77.54;101296.85;107330;1257;108346;-61
2023/09/04 06:12:01;;;;;;;10.60;6.50;;;;;;;19.57;77.55;101298.50;107337;1255;97924;-60
2023/09/04 06:14:30;;;;;;;16.60;7.00;;;;;;;19.52;77.45;101297.23;107352;1255;98552;-60
2023/09/04 06:16:59;;;;;;;9.60;7.00;;;;;;;19.53;77.53;101299.90;107337;1260;111872;-60
2023/09/04 06:19:30;;;;;;;15.30;6.90;;;;;;;19.59;77.75;101303.37;107336;1257;109660;-62
2023/09/04 06:21:58;;;;;;;11.00;7.10;;;;;;;19.63;77.54;101305.03;107295;1257;108663;-59
2023/09/04 06:24:26;;;;;;;7.70;6.40;;;;;;;19.68;77.21;101311.33;107318;1260;97829;-60
2023/09/04 06:26:55;;;;;;;10.20;7.20;;;;;;;19.74;77.52;101313.58;107361;1255;98337;-60
2023/09/04 06:29:23;;;;;;;14.40;6.70;;;;;;;19.80;77.30;101312.84;107400;1254;111962;-59
2023/09/04 06:31:51;;;;;;;12.10;6.30;;;;;;;19.83;77.24;101310.25;107369;1254;108960;-60
2023/09/04 06:34:20;;;;;;;10.30;6.40;;;;;;;19.85;76.92;101311.73;107299;1253;107698;-61
2023/09/04 06:36:48;;;;;;;15.20;7.00;;;;;;;19.86;76.79;101313.80;107340;1254;97848;-59
2023/09/04 06:39:17;;;;;;;18.90;7.00;;;;;;;19.84;76.31;101320.19;107323;1257;97840;-59
2023/09/04 06:41:45;;;;;;;11.20;6.60;;;;;;;19.80;76.24;101323.62;107335;1254;111625;-59
2023/09/04 06:44:13;;;;;;;11.20;7.00;;;;;;;19.78;76.27;101329.30;107325;1254;109709;-60
2023/09/04 06:46:41;;;;;;;14.20;6.40;;;;;;;19.79;76.39;101332.30;107241;1260;108273;-60
2023/09/04 06:49:10;;;;;;;17.40;6.80;;;;;;;19.77;76.18;101329.55;107283;1257;97853;-59
2023/09/04 06:51:39;;;;;;;19.60;6.80;;;;;;;19.70;75.96;101332.58;107331;1257;97838;-61
2023/09/04 06:54:07;;;;;;;18.80;7.40;;;;;;;19.69;76.36;101336.16;107296;1256;111443;-59
2023/09/04 06:56:35;;;;;;;11.60;6.50;;;;;;;19.72;76.30;101340.38;107253;1257;109229;-60
2023/09/04 06:59:04;;;;;;;11.70;7.50;;;;;;;19.73;76.04;101345.39;107330;1256;108336;-60
2023/09/04 07:01:33;;;;;;;12.10;6.50;;;;;;;19.71;75.95;101342.48;107317;1254;97848;-60
2023/09/04 07:04:02;;;;;;;11.60;7.40;;;;;;;19.76;75.82;101347.41;107311;1255;98476;-60
2023/09/04 07:06:30;;;;;;;8.90;6.90;;;;;;;19.79;75.33;101349.56;107295;1260;112035;-61
2023/09/04 07:08:58;;;;;;;11.60;7.50;;;;;;;19.81;75.17;101351.46;107320;1257;109637;-60
2023/09/04 07:11:27;;;;;;;11.30;6.50;;;;;;;19.89;74.86;101349.07;107240;1257;107330;-60
2023/09/04 07:13:55;;;;;;;10.10;7.10;;;;;;;19.95;74.17;101353.48;107266;1257;97819;-59
2023/09/04 07:16:25;;;;;;;16.20;8.00;;;;;;;20.00;74.46;101354.91;107292;1258;98005;-59
2023/09/04 07:19:07;;;;;;;14.30;7.60;;;;;;;20.09;74.16;101356.23;107329;1257;110973;-62
2023/09/04 07:21:36;;;;;;;15.00;6.60;;;;;;;20.17;73.88;101357.63;107259;1257;109776;-61
2023/09/04 07:24:05;;;;;;;13.00;7.60;;;;;;;20.20;73.09;101356.33;107349;1254;107571;-60
2023/09/04 07:26:33;;;;;;;14.00;7.10;;;;;;;20.27;73.00;101359.00;107351;1257;97713;-61
2023/09/04 07:29:01;;;;;;;13.80;7.00;;;;;;;20.29;72.74;101360.20;107317;1254;98433;-61
2023/09/04 07:31:29;;;;;;;14.30;7.10;;;;;;;20.27;72.44;101359.34;107332;1254;112076;-60
2023/09/04 07:33:58;;;;;;;14.00;7.40;;;;;;;20.35;72.53;101362.02;107336;1257;108984;-60
2023/09/04 07:36:26;;;;;;;13.20;6.20;;;;;;;20.50;71.95;101362.34;107288;1254;107405;-61
2023/09/04 07:38:55;;;;;;;13.10;7.00;;;;;;;20.65;71.68;101365.65;107330;1257;97814;-60
2023/09/04 07:41:23;;;;;;;9.10;6.00;;;;;;;20.85;71.50;101371.67;107372;1257;97694;-60
2023/09/04 07:43:51;;;;;;;12.90;6.20;;;;;;;21.05;71.04;101373.55;107319;1254;112968;-60
2023/09/04 07:46:20;;;;;;;9.50;6.20;;;;;;;21.26;69.99;101367.17;107306;1255;108768;-60
2023/09/04 07:48:48;;;;;;;13.30;6.00;;;;;;;21.36;69.35;101367.29;107323;1254;107571;-61
2023/09/04 07:51:19;;;;;;;12.80;7.40;;;;;;;21.37;68.57;101373.48;107314;1257;97842;-61
2023/09/04 07:54:03;;;;;;;14.30;7.30;;;;;;;21.30;69.36;101376.00;107303;1257;99556;-61
2023/09/04 07:56:31;;;;;;;9.60;7.20;;;;;;;21.35;69.07;101381.27;107308;1257;110916;-61
2023/09/04 07:59:10;;;;;;;13.10;7.10;;;;;;;21.34;68.89;101385.13;107339;1255;109995;-61
2023/09/04 08:01:38;;;;;;;10.30;6.80;;;;;;;21.29;68.26;101390.86;107230;1260;108202;-61
2023/09/04 08:04:07;;;;;;;14.40;8.70;;;;;;;21.18;68.34;101393.52;107261;1257;97691;-61
2023/09/04 08:06:36;;;;;;;14.80;8.30;;;;;;;21.12;68.59;101394.16;107171;1257;97707;-62
2023/09/04 08:09:04;;;;;;;12.50;7.60;;;;;;;21.10;68.55;101399.23;107312;1254;111356;-60
2023/09/04 08:11:32;;;;;;;14.70;8.20;;;;;;;21.04;67.95;101401.97;107248;1257;109117;-62
2023/09/04 08:14:01;;;;;;;15.20;9.10;;;;;;;20.91;68.54;101411.19;107229;1255;108115;-62
2023/09/04 08:16:29;;;;;;;17.00;8.30;;;;;;;20.81;68.72;101409.31;107187;1257;97746;-61
2023/09/04 08:18:57;;;;;;;16.30;7.30;;;;;;;20.66;69.27;101414.04;107331;1254;97859;-61
2023/09/04 08:21:26;;;;;;;12.90;7.10;;;;;;;20.58;69.82;101413.16;107283;1256;110982;-60
2023/09/04 08:23:54;;;;;;;10.70;6.90;;;;;;;20.56;70.08;101417.42;107275;1257;109902;-60
2023/09/04 08:26:22;;;;;;;9.10;6.10;;;;;;;20.57;70.18;101414.98;107206;1255;107978;-61
2023/09/04 08:28:51;;;;;;;9.30;6.90;;;;;;;20.58;70.18;101417.19;107281;1257;97908;-60
2023/09/04 08:31:19;;;;;;;11.20;6.60;;;;;;;20.60;70.28;101419.42;107200;1257;97738;-61
2023/09/04 08:33:48;;;;;;;12.10;6.30;;;;;;;20.64;70.39;101418.50;107242;1257;111799;-60
2023/09/04 08:36:16;;;;;;;11.40;6.20;;;;;;;20.66;70.27;101423.69;107298;1258;109677;-60
2023/09/04 08:38:45;;;;;;;9.60;6.50;;;;;;;20.64;70.26;101427.89;107315;1257;107995;-60
2023/09/04 08:41:19;;;;;;;6.40;5.30;;;;;;;20.68;70.38;101428.20;107240;1257;97957;-62
2023/09/04 08:43:49;;;;;;;6.30;5.30;;;;;;;20.76;70.45;101427.29;107254;1257;97729;-61
2023/09/04 08:46:19;;;;;;;6.80;4.50;;;;;;;20.81;70.15;101431.57;107338;1259;111267;-60
2023/09/04 08:48:51;;;;;;;7.60;5.50;;;;;;;20.91;69.89;101431.39;107363;1254;109003;-61
2023/09/04 08:51:20;;;;;;;7.20;4.50;;;;;;;21.06;69.42;101428.38;107269;1259;107395;-61
2023/09/04 08:53:50;;;;;;;7.70;5.20;;;;;;;21.17;68.60;101432.10;107081;1260;97847;-60
2023/09/04 08:56:19;;;;;;;5.20;4.60;;;;;;;21.22;68.64;101435.23;107308;1256;97851;-61
2023/09/04 08:58:47;;;;;;;8.90;4.50;;;;;;;21.33;68.50;101432.05;107173;1254;111403;-60
2023/09/04 09:01:16;;;;;;;7.50;4.60;;;;;;;21.45;68.36;101430.49;107327;1256;109242;-61
2023/09/04 09:03:45;;;;;;;6.10;4.00;;;;;;;21.51;67.39;101433.77;107322;1257;107756;-61
2023/09/04 09:06:14;;;;;;;9.30;4.80;;;;;;;21.58;67.07;101436.08;107327;1258;97860;-61
2023/09/04 09:08:44;;;;;;;7.80;5.10;;;;;;;21.69;66.64;101442.02;107391;1254;97915;-61
2023/09/04 09:11:13;;;;;;;8.40;5.30;;;;;;;21.76;66.39;101437.88;107354;1257;111619;-62
2023/09/04 09:13:42;;;;;;;10.50;4.80;;;;;;;21.88;66.33;101439.14;107376;1257;109709;-60
2023/09/04 09:16:17;;;;;;;8.10;4.40;;;;;;;22.07;66.40;101440.45;107343;1259;107136;-60
2023/09/04 09:18:47;;;;;;;9.40;4.80;;;;;;;22.31;65.68;101443.04;107263;1260;97723;-62
2023/09/04 09:21:23;;;;;;;10.00;4.70;;;;;;;22.52;64.15;101448.17;107334;1257;97924;-61
2023/09/04 09:24:15;;;;;;;6.90;4.00;;;;;;;22.57;63.89;101446.45;107333;1257;111515;-61
2023/09/04 09:26:48;;;;;;;7.80;4.40;;;;;;;22.64;63.89;101449.34;107259;1257;109942;-62
2023/09/04 09:29:18;;;;;;;9.60;5.50;;;;;;;22.65;63.61;101450.91;107315;1254;107544;-63
2023/09/04 09:31:46;;;;;;;7.80;4.80;;;;;;;22.63;63.57;101450.27;107312;1258;97847;-60
2023/09/04 09:34:18;;;;;;;9.60;4.70;;;;;;;22.60;63.76;101449.90;107321;1255;97862;-60
2023/09/04 09:36:47;;;;;;;7.50;5.30;;;;;;;22.52;63.27;101453.23;107329;1257;110940;-61
2023/09/04 09:39:16;;;;;;;8.10;5.00;;;;;;;22.35;63.36;101451.58;107357;1254;109234;-60
2023/09/04 09:41:45;;;;;;;6.90;5.30;;;;;;;22.24;63.69;101447.81;107246;1254;107139;-60
2023/09/04 09:44:14;;;;;;;11.30;5.20;;;;;;;22.12;63.96;101448.14;107357;1257;97823;-62
2023/09/04 09:46:42;;;;;;;13.30;6.00;;;;;;;22.01;64.29;101448.80;107340;1254;97761;-61
2023/09/04 09:49:11;;;;;;;12.60;7.20;;;;;;;21.98;64.69;101453.80;107213;1257;112113;-60
2023/09/04 09:51:40;;;;;;;10.70;6.50;;;;;;;21.96;64.79;101454.60;107268;1257;109311;-60
2023/09/04 09:54:10;;;;;;;10.60;6.20;;;;;;;21.93;65.16;101455.88;107310;1257;108098;-62
2023/09/04 09:56:40;;;;;;;9.40;5.60;;;;;;;21.95;65.34;101453.40;107023;1257;290960;-61
2023/09/04 09:59:08;;;;;;;8.30;5.50;;;;;;;21.94;65.31;101457.98;107383;1257;97649;-60
2023/09/04 10:01:37;;;;;;;11.80;4.90;;;;;;;21.98;65.62;101457.65;107256;1256;111866;-60
2023/09/04 10:04:07;;;;;;;11.20;6.00;;;;;;;22.11;65.82;101448.34;107255;1258;110101;-61
2023/09/04 10:06:37;;;;;;;9.70;5.70;;;;;;;22.29;65.34;101448.75;107187;1256;107565;-61
2023/09/04 10:09:08;;;;;;;12.30;4.70;;;;;;;22.37;64.86;101443.39;107249;1257;97862;-59
2023/09/04 10:11:40;;;;;;;9.00;4.70;;;;;;;22.45;65.06;101449.84;107167;1256;97960;-62
2023/09/04 10:14:18;;;;;;;7.80;4.50;;;;;;;22.48;64.92;101448.10;107324;1257;111686;-61
2023/09/04 10:16:55;;;;;;;7.30;4.90;;;;;;;22.52;64.86;101449.51;107281;1256;110825;-60
2023/09/04 10:19:33;;;;;;;10.50;5.10;;;;;;;22.49;64.24;101450.63;107300;1257;107157;-60
2023/09/04 10:22:15;;;;;;;11.30;6.00;;;;;;;22.44;64.31;101453.80;107270;1257;97972;-60
2023/09/04 10:24:58;;;;;;;7.80;5.40;;;;;;;22.40;64.46;101459.80;107285;1257;97870;-61
2023/09/04 10:27:32;;;;;;;8.00;4.90;;;;;;;22.32;64.35;101460.92;107281;1257;112171;-61
2023/09/04 10:30:07;;;;;;;9.70;5.20;;;;;;;22.27;64.38;101461.76;107253;1257;108595;-61
2023/09/04 10:32:36;;;;;;;10.40;5.40;;;;;;;22.25;64.54;101462.24;107253;1257;106745;-61
2023/09/04 10:35:07;;;;;;;7.30;5.60;;;;;;;22.24;64.75;101464.09;107262;1257;99484;-59
2023/09/04 10:37:40;;;;;;;6.10;4.90;;;;;;;22.24;64.86;101466.88;107352;1257;98353;-60
2023/09/04 10:40:10;;;;;;;18.30;5.60;;;;;;;22.32;65.03;101464.80;107265;1257;111600;-62
2023/09/04 10:42:41;;;;;;;12.40;5.60;;;;;;;22.48;65.16;101465.52;107267;1257;109582;-60
2023/09/04 10:45:14;;;;;;;6.60;5.00;;;;;;;22.72;64.82;101465.65;107270;1257;107478;-60
2023/09/04 10:47:46;;;;;;;10.10;5.20;;;;;;;22.94;64.04;101466.13;107262;1259;97870;-59
2023/09/04 10:50:36;;;;;;;8.80;5.30;;;;;;;23.10;63.56;101471.45;107309;1256;98537;-61
2023/09/04 10:53:06;;;;;;;6.60;4.90;;;;;;;23.17;62.95;101471.80;107244;1256;112449;-58
2023/09/04 10:55:36;;;;;;;12.60;5.20;;;;;;;23.25;62.88;101474.09;107308;1257;110028;-59
2023/09/04 10:58:07;;;;;;;11.70;5.90;;;;;;;23.27;62.55;101472.92;107274;1256;107296;-60
2023/09/04 11:00:40;;;;;;;10.20;6.00;;;;;;;23.25;62.39;101473.51;107073;1254;97837;-61
2023/09/04 11:03:20;;;;;;;8.70;4.80;;;;;;;23.18;61.99;101477.71;107367;1257;97892;-60
2023/09/04 11:06:08;;;;;;;11.40;5.40;;;;;;;23.01;62.25;101480.23;107179;1257;112427;-59
2023/09/04 11:08:40;;;;;;;9.90;6.10;;;;;;;22.88;62.60;101483.61;107208;1257;108815;-60
2023/09/04 11:11:08;;;;;;;8.20;5.20;;;;;;;22.75;62.61;101489.85;107325;1257;107558;-59
2023/09/04 11:13:38;;;;;;;10.50;5.70;;;;;;;22.59;63.00;101487.40;107322;1257;97915;-60
2023/09/04 11:16:07;;;;;;;8.30;5.50;;;;;;;22.50;63.40;101487.99;107382;1257;97714;-60
2023/09/04 11:18:37;;;;;;;8.30;4.90;;;;;;;22.41;63.44;101485.80;107323;1254;112336;-59
2023/09/04 11:21:06;;;;;;;11.80;5.00;;;;;;;22.31;63.45;101483.52;107360;1254;108740;-62